createdAt,value
2022-09-28T00:01:55.449Z,12.43
2022-09-28T00:04:24.253Z,17.40
2022-09-28T00:06:58.965Z,17.00
2022-09-28T00:09:26.273Z,15.55
2022-09-28T00:11:58.200Z,15.32
2022-09-28T00:14:26.181Z,14.02
2022-09-28T00:16:53.153Z,15.38
2022-09-28T00:19:19.959Z,15.85
2022-09-28T00:21:46.850Z,18.00
2022-09-28T00:24:15.690Z,14.20
2022-09-28T00:26:51.575Z,15.45
2022-09-28T00:29:40.978Z,15.32
2022-09-28T00:32:11.857Z,23.90
2022-09-28T00:34:42.479Z,20.85
2022-09-28T00:37:09.942Z,20.17
2022-09-28T00:39:38.666Z,19.13
2022-09-28T00:42:13.038Z,17.40
2022-09-28T00:44:51.345Z,11.35
2022-09-28T00:47:27.183Z,14.10
2022-09-28T00:50:06.990Z,18.67
2022-09-28T00:52:46.364Z,17.15
2022-09-28T00:55:17.451Z,16.73
2022-09-28T00:57:48.892Z,18.25
2022-09-28T01:00:15.870Z,13.13
2022-09-28T01:02:44.350Z,12.82
2022-09-28T01:05:12.515Z,11.45
2022-09-28T01:07:39.903Z,10.45
2022-09-28T01:10:08.154Z,7.07
2022-09-28T01:12:34.988Z,7.78
2022-09-28T01:15:03.499Z,7.85
2022-09-28T01:17:43.122Z,6.32
2022-09-28T01:20:29.439Z,5.80
2022-09-28T01:23:12.660Z,3.55
2022-09-28T01:25:57.441Z,3.08
2022-09-28T01:28:29.048Z,3.72
2022-09-28T01:31:07.620Z,4.28
2022-09-28T01:33:52.185Z,5.07
2022-09-28T01:36:30.215Z,2.42
2022-09-28T01:39:13.396Z,4.32
2022-09-28T01:42:04.902Z,2.17
2022-09-28T01:44:48.627Z,3.60
2022-09-28T01:47:27.064Z,3.08
2022-09-28T01:50:10.923Z,1.48
2022-09-28T01:52:47.855Z,1.33
2022-09-28T01:55:54.911Z,2.35
2022-09-28T01:58:30.250Z,1.40
2022-09-28T02:01:05.321Z,1.08
2022-09-28T02:03:52.731Z,2.10
2022-09-28T02:06:52.130Z,1.52
2022-09-28T02:10:15.773Z,1.48
2022-09-28T02:12:59.768Z,1.63
2022-09-28T02:15:42.990Z,3.25
2022-09-28T02:18:18.967Z,1.83
2022-09-28T02:20:54.417Z,1.70
2022-09-28T02:23:35.538Z,1.85
2022-09-28T02:26:06.534Z,2.53
2022-09-28T02:28:33.490Z,2.05
2022-09-28T02:31:01.384Z,1.92
2022-09-28T02:33:34.439Z,1.92
2022-09-28T02:36:01.770Z,2.55
2022-09-28T02:38:28.618Z,1.60
2022-09-28T02:41:05.475Z,2.60
2022-09-28T02:44:01.465Z,3.22
2022-09-28T02:46:52.601Z,1.73
2022-09-28T02:49:41.454Z,2.28
2022-09-28T02:53:00.001Z,2.05
2022-09-28T02:55:45.860Z,3.33
2022-09-28T02:58:30.254Z,2.17
2022-09-28T03:01:46.587Z,1.83
2022-09-28T03:04:16.239Z,3.22
2022-09-28T03:06:57.966Z,2.30
2022-09-28T03:10:06.648Z,3.42
2022-09-28T03:12:46.481Z,4.25
2022-09-28T03:15:45.172Z,3.03
2022-09-28T03:18:14.752Z,2.75
2022-09-28T03:21:11.680Z,3.22
2022-09-28T03:23:54.562Z,3.28
2022-09-28T03:26:39.397Z,2.45
2022-09-28T03:29:11.199Z,4.88
2022-09-28T03:31:46.158Z,4.45
2022-09-28T03:34:13.011Z,5.75
2022-09-28T03:36:48.617Z,4.78
2022-09-28T03:39:16.929Z,4.60
2022-09-28T03:41:47.203Z,5.45
2022-09-28T03:44:14.029Z,2.90
2022-09-28T03:46:55.066Z,5.30
2022-09-28T03:49:21.901Z,6.43
2022-09-28T03:51:48.688Z,4.68
2022-09-28T03:54:15.595Z,4.43
2022-09-28T03:56:42.426Z,4.65
2022-09-28T03:59:09.214Z,4.63
2022-09-28T04:01:36.232Z,5.00
2022-09-28T04:04:03.112Z,5.93
2022-09-28T04:06:30.142Z,5.43
2022-09-28T04:08:59.784Z,6.35
2022-09-28T04:11:26.974Z,5.30
2022-09-28T04:13:53.966Z,6.47
2022-09-28T04:16:31.414Z,5.75
2022-09-28T04:18:59.002Z,4.93
2022-09-28T04:21:25.823Z,6.43
2022-09-28T04:23:53.375Z,6.93
2022-09-28T04:26:30.113Z,6.22
2022-09-28T04:29:17.473Z,4.95
2022-09-28T04:31:45.968Z,6.90
2022-09-28T04:34:17.272Z,5.20
2022-09-28T04:36:45.217Z,6.05
2022-09-28T04:39:13.439Z,7.03
2022-09-28T04:41:41.557Z,8.80
2022-09-28T04:44:09.204Z,6.82
2022-09-28T04:46:36.461Z,7.75
2022-09-28T04:49:03.448Z,6.70
2022-09-28T04:51:33.487Z,7.85
2022-09-28T04:54:00.379Z,6.47
2022-09-28T04:56:29.525Z,7.68
2022-09-28T04:58:56.340Z,8.02
2022-09-28T05:01:24.405Z,9.25
2022-09-28T05:03:51.403Z,9.07
2022-09-28T05:06:18.367Z,7.82
2022-09-28T05:08:47.152Z,9.95
2022-09-28T05:11:14.961Z,11.10
2022-09-28T05:13:45.259Z,9.80
2022-09-28T05:16:13.567Z,10.20
2022-09-28T05:18:58.578Z,7.57
2022-09-28T05:21:26.548Z,9.23
2022-09-28T05:23:56.339Z,7.95
2022-09-28T05:26:23.854Z,10.23
2022-09-28T05:28:51.078Z,9.10
2022-09-28T05:31:27.187Z,11.68
2022-09-28T05:33:54.144Z,7.78
2022-09-28T05:36:21.056Z,12.23
2022-09-28T05:38:47.975Z,9.00
2022-09-28T05:41:15.283Z,7.70
2022-09-28T05:43:51.766Z,8.93
2022-09-28T05:46:20.269Z,8.43
2022-09-28T05:48:49.727Z,7.88
2022-09-28T05:51:16.667Z,10.38
2022-09-28T05:53:43.578Z,10.70
2022-09-28T05:56:10.682Z,9.35
2022-09-28T05:58:37.787Z,9.23
2022-09-28T06:01:04.881Z,9.77
2022-09-28T06:03:35.402Z,12.25
2022-09-28T06:06:05.051Z,11.55
2022-09-28T06:08:33.012Z,11.73
2022-09-28T06:11:01.508Z,13.60
2022-09-28T06:13:29.159Z,13.73
2022-09-28T06:15:56.057Z,14.20
2022-09-28T06:18:23.101Z,12.10
2022-09-28T06:20:49.998Z,14.98
2022-09-28T06:23:16.981Z,15.57
2022-09-28T06:25:43.824Z,15.65
2022-09-28T06:28:14.074Z,16.13
2022-09-28T06:30:42.636Z,17.40
2022-09-28T06:33:14.102Z,20.40
2022-09-28T06:35:41.268Z,15.73
2022-09-28T06:38:08.624Z,18.10
2022-09-28T06:40:41.618Z,17.58
2022-09-28T06:43:15.241Z,19.00
2022-09-28T06:45:43.535Z,18.08
2022-09-28T06:48:11.292Z,18.92
2022-09-28T06:50:40.783Z,20.70
2022-09-28T06:53:10.769Z,17.38
2022-09-28T06:55:49.249Z,17.33
2022-09-28T06:58:20.983Z,18.20
2022-09-28T07:00:51.712Z,18.90
2022-09-28T07:03:21.713Z,16.88
2022-09-28T07:05:54.548Z,15.95
2022-09-28T07:08:26.172Z,19.23
2022-09-28T07:10:57.000Z,15.93
2022-09-28T07:16:15.717Z,15.02
2022-09-28T07:18:42.857Z,17.80
2022-09-28T07:21:16.552Z,16.20
2022-09-28T07:23:53.850Z,14.73
2022-09-28T07:26:24.099Z,13.90
2022-09-28T07:28:52.161Z,12.65
2022-09-28T07:31:19.257Z,12.90
2022-09-28T07:33:47.523Z,10.80
2022-09-28T07:36:18.053Z,11.13
2022-09-28T07:38:45.097Z,11.45
2022-09-28T07:41:12.278Z,8.73
2022-09-28T07:43:42.533Z,8.38
2022-09-28T07:46:12.934Z,7.05
2022-09-28T07:54:18.398Z,8.10
2022-09-28T07:56:46.298Z,8.43
2022-09-28T07:59:17.759Z,6.60
2022-09-28T08:02:23.214Z,8.73
2022-09-28T08:04:51.608Z,4.80
2022-09-28T08:07:24.719Z,7.15
2022-09-28T08:09:52.326Z,8.43
2022-09-28T08:12:21.347Z,8.93
2022-09-28T08:14:49.860Z,5.03
2022-09-28T08:17:17.103Z,6.20
2022-09-28T08:20:05.741Z,6.10
2022-09-28T08:22:33.018Z,5.57
2022-09-28T08:25:00.151Z,4.72
2022-09-28T08:27:45.618Z,5.88
2022-09-28T08:32:55.627Z,4.15
2022-09-28T08:35:22.832Z,4.18
2022-09-28T08:37:55.686Z,4.20
2022-09-28T08:40:25.433Z,4.80
2022-09-28T08:43:01.143Z,2.67
2022-09-28T08:45:31.634Z,6.50
2022-09-28T08:48:56.333Z,4.90
2022-09-28T08:51:48.208Z,3.78
2022-09-28T08:54:36.271Z,3.42
2022-09-28T08:57:14.917Z,3.78
2022-09-28T08:59:52.359Z,1.92
2022-09-28T09:02:39.852Z,3.47
2022-09-28T09:05:14.052Z,4.07
2022-09-28T09:08:09.096Z,2.22
2022-09-28T09:10:45.230Z,2.33
2022-09-28T09:13:21.103Z,2.05
2022-09-28T09:16:06.650Z,1.92
2022-09-28T09:21:13.564Z,2.67
2022-09-28T09:23:55.654Z,2.33
2022-09-28T09:26:39.819Z,1.83
2022-09-28T09:29:28.945Z,4.45
2022-09-28T09:32:26.085Z,2.85
2022-09-28T09:35:06.473Z,2.30
2022-09-28T09:37:55.261Z,1.55
2022-09-28T09:40:54.835Z,1.88
2022-09-28T09:43:40.495Z,1.38
2022-09-28T09:48:56.412Z,1.85
2022-09-28T09:51:42.266Z,1.73
2022-09-28T09:54:26.390Z,2.75
2022-09-28T09:57:04.842Z,1.27
2022-09-28T09:59:39.194Z,1.92
2022-09-28T10:02:12.363Z,1.00
2022-09-28T10:04:46.732Z,2.35
2022-09-28T10:07:50.610Z,1.73
2022-09-28T10:10:26.744Z,6.22
2022-09-28T10:12:54.491Z,2.38
2022-09-28T10:15:35.410Z,1.40
2022-09-28T10:18:11.991Z,1.83
2022-09-28T10:20:40.971Z,1.48
2022-09-28T10:23:29.844Z,2.45
2022-09-28T10:26:13.435Z,2.15
2022-09-28T10:28:48.624Z,1.95
2022-09-28T10:31:35.830Z,2.65
2022-09-28T10:34:04.571Z,3.20
2022-09-28T10:36:44.784Z,1.58
2022-09-28T10:39:30.359Z,1.52
2022-09-28T10:44:27.622Z,2.63
2022-09-28T10:47:01.376Z,3.85
2022-09-28T10:49:32.008Z,2.83
2022-09-28T10:51:59.191Z,3.03
2022-09-28T10:54:28.768Z,1.80
2022-09-28T10:56:57.689Z,4.05
2022-09-28T10:59:30.767Z,2.75
2022-09-28T11:02:37.480Z,2.38
2022-09-28T11:05:07.097Z,5.18
2022-09-28T11:07:46.056Z,4.88
2022-09-28T11:10:26.451Z,3.97
2022-09-28T11:12:54.649Z,4.53
2022-09-28T11:15:31.900Z,2.53
2022-09-28T11:18:31.505Z,3.75
2022-09-28T11:21:16.107Z,2.55
2022-09-28T11:24:01.363Z,3.17
2022-09-28T11:26:45.652Z,2.58
2022-09-28T11:29:31.467Z,3.03
2022-09-28T11:32:03.698Z,5.82
2022-09-28T11:34:59.254Z,5.85
2022-09-28T11:37:54.255Z,3.00
2022-09-28T11:40:53.454Z,6.20
2022-09-28T11:43:47.312Z,7.80
2022-09-28T11:46:17.207Z,4.47
2022-09-28T11:48:49.882Z,3.38
2022-09-28T11:51:26.422Z,5.40
2022-09-28T11:53:59.726Z,6.50
2022-09-28T11:56:29.490Z,3.55
2022-09-28T11:59:04.093Z,5.32
2022-09-28T12:01:49.388Z,4.65
2022-09-28T12:04:28.467Z,7.47
2022-09-28T12:07:16.711Z,4.00
2022-09-28T12:09:55.945Z,2.50
2022-09-28T12:12:54.403Z,5.45
2022-09-28T12:15:59.557Z,5.22
2022-09-28T12:18:43.561Z,4.10
2022-09-28T12:21:25.708Z,5.35
2022-09-28T12:24:00.459Z,4.03
2022-09-28T12:27:03.702Z,3.40
2022-09-28T12:29:41.285Z,4.70
2022-09-28T12:32:15.315Z,4.45
2022-09-28T12:34:43.440Z,3.28
2022-09-28T12:37:29.820Z,3.70
2022-09-28T12:40:45.657Z,3.95
2022-09-28T12:43:43.841Z,3.20
2022-09-28T12:46:33.787Z,4.18
2022-09-28T12:51:59.774Z,3.00
2022-09-28T12:54:45.583Z,2.72
2022-09-28T12:57:46.554Z,6.93
2022-09-28T13:00:22.271Z,2.78
2022-09-28T13:03:15.087Z,4.30
2022-09-28T13:05:44.711Z,1.70
2022-09-28T13:08:17.787Z,4.97
2022-09-28T13:11:15.778Z,2.33
2022-09-28T13:14:03.901Z,2.72
2022-09-28T13:17:08.831Z,5.63
2022-09-28T13:20:01.820Z,6.38
2022-09-28T13:22:50.001Z,6.03
2022-09-28T13:25:22.160Z,5.38
2022-09-28T13:28:01.310Z,7.60
2022-09-28T13:30:28.678Z,5.00
2022-09-28T13:33:02.204Z,2.42
2022-09-28T13:35:29.373Z,4.55
2022-09-28T13:38:18.347Z,6.05
2022-09-28T13:41:03.670Z,8.65
2022-09-28T13:43:56.221Z,4.40
2022-09-28T13:46:35.127Z,6.10
2022-09-28T13:49:21.637Z,8.35
2022-09-28T13:52:06.050Z,10.32
2022-09-28T13:55:17.287Z,8.57
2022-09-28T13:58:14.818Z,7.75
2022-09-28T14:01:14.714Z,6.15
2022-09-28T14:04:01.871Z,6.65
2022-09-28T14:06:33.121Z,8.40
2022-09-28T14:09:19.072Z,4.93
2022-09-28T14:12:03.676Z,4.93
2022-09-28T14:14:48.656Z,8.05
2022-09-28T14:17:21.822Z,6.13
2022-09-28T14:20:01.078Z,10.73
2022-09-28T14:22:35.373Z,6.40
2022-09-28T14:25:23.731Z,7.37
2022-09-28T14:28:28.256Z,6.75
2022-09-28T14:30:58.187Z,9.18
2022-09-28T14:33:32.063Z,8.45
2022-09-28T14:36:43.950Z,8.18
2022-09-28T14:39:50.276Z,8.25
2022-09-28T14:45:07.042Z,9.00
2022-09-28T14:48:03.498Z,14.43
2022-09-28T14:53:13.576Z,12.52
2022-09-28T14:56:07.869Z,14.45
2022-09-28T14:58:37.696Z,15.82
2022-09-28T15:01:14.578Z,29.00
2022-09-28T15:03:43.703Z,14.55
2022-09-28T15:06:17.328Z,11.32
2022-09-28T15:08:44.430Z,11.85
2022-09-28T15:11:25.673Z,12.25
2022-09-28T15:14:06.393Z,11.43
2022-09-28T15:16:33.939Z,11.07
2022-09-28T15:19:27.994Z,11.48
2022-09-28T15:21:54.953Z,55.47
2022-09-28T15:24:33.735Z,65.35
2022-09-28T15:27:03.900Z,32.20
2022-09-28T15:29:33.593Z,12.13
2022-09-28T15:32:00.758Z,13.35
2022-09-28T15:34:56.919Z,11.23
2022-09-28T15:37:33.136Z,9.80
2022-09-28T15:40:01.036Z,12.13
2022-09-28T15:42:27.972Z,11.13
2022-09-28T15:45:13.784Z,10.27
2022-09-28T15:47:45.015Z,9.55
2022-09-28T15:50:24.204Z,9.02
2022-09-28T15:53:00.132Z,8.38
2022-09-28T15:55:41.815Z,10.13
2022-09-28T15:58:17.959Z,9.23
2022-09-28T16:00:46.758Z,10.60
2022-09-28T16:03:30.207Z,10.15
2022-09-28T16:06:10.917Z,11.75
2022-09-28T16:08:45.974Z,13.40
2022-09-28T16:11:26.704Z,9.88
2022-09-28T16:14:18.537Z,9.18
2022-09-28T16:16:50.494Z,11.23
2022-09-28T16:19:38.146Z,11.55
2022-09-28T16:22:13.965Z,13.77
2022-09-28T16:24:41.203Z,10.80
2022-09-28T16:27:27.351Z,12.52
2022-09-28T16:30:27.605Z,11.88
2022-09-28T16:33:17.117Z,9.73
2022-09-28T16:35:44.292Z,11.07
2022-09-28T16:38:16.996Z,14.52
2022-09-28T16:40:48.065Z,10.85
2022-09-28T16:43:30.404Z,15.27
2022-09-28T16:46:00.453Z,16.73
2022-09-28T16:48:32.513Z,16.40
2022-09-28T16:50:59.667Z,15.90
2022-09-28T16:53:46.012Z,15.63
2022-09-28T16:56:13.713Z,16.52
2022-09-28T16:58:42.656Z,16.65
2022-09-28T17:01:11.772Z,15.80
2022-09-28T17:03:42.432Z,22.00
2022-09-28T17:06:12.516Z,19.48
2022-09-28T17:08:40.028Z,15.18
2022-09-28T17:11:17.729Z,15.75
2022-09-28T17:13:47.840Z,17.08
2022-09-28T17:16:18.747Z,17.42
2022-09-28T17:18:47.128Z,23.13
2022-09-28T17:21:19.519Z,22.75
2022-09-28T17:23:48.467Z,17.90
2022-09-28T17:26:31.022Z,17.65
2022-09-28T17:28:59.701Z,15.95
2022-09-28T17:31:39.841Z,15.13
2022-09-28T17:34:07.186Z,12.35
2022-09-28T17:36:34.630Z,15.98
2022-09-28T17:39:02.018Z,15.52
2022-09-28T17:41:29.765Z,16.45
2022-09-28T17:43:57.432Z,20.92
2022-09-28T17:46:36.358Z,33.83
2022-09-28T17:49:06.123Z,31.58
2022-09-28T17:51:37.569Z,34.97
2022-09-28T17:54:07.062Z,23.15
2022-09-28T17:56:35.510Z,23.42
2022-09-28T17:59:05.683Z,26.92
2022-09-28T18:01:38.932Z,27.02
2022-09-28T18:04:09.061Z,19.33
2022-09-28T18:06:37.521Z,19.48
2022-09-28T18:09:05.498Z,18.45
2022-09-28T18:11:33.854Z,18.65
2022-09-28T18:14:01.633Z,16.05
2022-09-28T18:16:29.395Z,18.05
2022-09-28T18:18:56.804Z,16.10
2022-09-28T18:21:24.261Z,15.23
2022-09-28T18:23:51.545Z,15.65
2022-09-28T18:26:21.814Z,14.73
2022-09-28T18:28:53.648Z,17.52
2022-09-28T18:31:21.100Z,16.70
2022-09-28T18:33:51.030Z,17.60
2022-09-28T18:36:18.512Z,15.48
2022-09-28T18:38:45.642Z,18.85
2022-09-28T18:41:16.184Z,28.83
2022-09-28T18:43:51.382Z,29.48
2022-09-28T18:48:47.696Z,26.65
2022-09-28T18:51:15.687Z,32.88
2022-09-28T18:53:45.104Z,34.08
2022-09-28T18:56:15.417Z,27.40
2022-09-28T18:58:43.502Z,20.90
2022-09-28T19:01:30.706Z,17.83
2022-09-28T19:04:03.816Z,19.40
2022-09-28T19:06:32.134Z,20.58
2022-09-28T19:08:59.561Z,17.42
2022-09-28T19:11:27.940Z,16.55
2022-09-28T19:13:55.918Z,17.80
2022-09-28T19:16:29.509Z,17.02
2022-09-28T19:19:03.077Z,19.10
2022-09-28T19:21:31.041Z,22.02
2022-09-28T19:24:01.360Z,22.27
2022-09-28T19:26:29.021Z,20.73
2022-09-28T19:28:57.946Z,19.77
2022-09-28T19:31:26.627Z,16.60
2022-09-28T19:33:53.721Z,14.88
2022-09-28T19:36:23.803Z,15.80
2022-09-28T19:38:57.954Z,14.02
2022-09-28T19:41:46.098Z,14.27
2022-09-28T19:44:17.220Z,18.42
2022-09-28T19:46:44.774Z,16.80
2022-09-28T19:49:14.293Z,30.83
2022-09-28T19:52:01.725Z,32.45
2022-09-28T19:54:36.177Z,22.30
2022-09-28T19:57:09.066Z,12.20
2022-09-28T19:59:37.549Z,17.42
2022-09-28T20:02:06.923Z,12.68
2022-09-28T20:04:34.631Z,15.32
2022-09-28T20:07:01.948Z,14.60
2022-09-28T20:09:29.295Z,17.27
2022-09-28T20:11:57.210Z,15.25
2022-09-28T20:14:25.925Z,15.75
2022-09-28T20:16:55.479Z,12.25
2022-09-28T20:19:23.416Z,16.10
2022-09-28T20:21:50.904Z,15.23
2022-09-28T20:24:18.334Z,16.38
2022-09-28T20:26:46.130Z,15.20
2022-09-28T20:29:13.505Z,17.95
2022-09-28T20:31:41.254Z,16.05
2022-09-28T20:34:09.467Z,17.77
2022-09-28T20:36:36.624Z,18.23
2022-09-28T20:39:04.095Z,20.55
2022-09-28T20:41:35.757Z,15.93
2022-09-28T20:44:06.344Z,15.85
2022-09-28T20:46:35.032Z,16.98
2022-09-28T20:49:02.046Z,14.98
2022-09-28T20:51:29.136Z,15.85
2022-09-28T20:53:58.123Z,16.98
2022-09-28T20:56:30.833Z,19.58
2022-09-28T20:58:58.180Z,15.57
2022-09-28T21:01:27.512Z,18.52
2022-09-28T21:04:02.323Z,18.50
2022-09-28T21:06:31.821Z,20.23
2022-09-28T21:08:59.216Z,18.33
2022-09-28T21:11:28.048Z,17.85
2022-09-28T21:13:58.117Z,18.27
2022-09-28T21:16:26.262Z,16.98
2022-09-28T21:18:53.580Z,19.63
2022-09-28T21:21:22.543Z,17.35
2022-09-28T21:23:53.538Z,20.80
2022-09-28T21:26:25.855Z,19.45
2022-09-28T21:29:01.156Z,19.80
2022-09-28T21:31:32.882Z,16.73
2022-09-28T21:34:00.290Z,19.35
2022-09-28T21:36:27.179Z,17.80
2022-09-28T21:38:56.077Z,13.85
2022-09-28T21:41:26.300Z,15.75
2022-09-28T21:43:53.285Z,13.45
2022-09-28T21:46:20.423Z,12.80
2022-09-28T21:48:51.905Z,13.90
2022-09-28T21:51:18.722Z,14.02
2022-09-28T21:53:45.733Z,15.35
2022-09-28T21:56:13.226Z,14.82
2022-09-28T21:58:40.390Z,16.88
2022-09-28T22:01:15.595Z,13.02
2022-09-28T22:03:44.375Z,17.70
2022-09-28T22:06:11.761Z,16.95
2022-09-28T22:08:39.366Z,16.80
2022-09-28T22:11:15.102Z,22.05
2022-09-28T22:13:44.539Z,18.63
2022-09-28T22:16:12.918Z,15.45
2022-09-28T22:18:40.164Z,16.38
2022-09-28T22:21:16.954Z,15.07
2022-09-28T22:23:44.286Z,19.88
2022-09-28T22:26:21.101Z,18.33
2022-09-28T22:28:50.310Z,20.02
2022-09-28T22:31:19.015Z,19.45
2022-09-28T22:33:46.187Z,21.15
2022-09-28T22:36:15.139Z,26.23
2022-09-28T22:38:42.445Z,25.88
2022-09-28T22:41:09.944Z,17.65
2022-09-28T22:43:36.885Z,18.25
2022-09-28T22:46:09.360Z,19.80
2022-09-28T22:48:36.790Z,22.75
2022-09-28T22:51:06.141Z,22.33
2022-09-28T22:53:35.306Z,20.75
2022-09-28T22:56:05.631Z,16.85
2022-09-28T22:58:33.707Z,19.75
2022-09-28T23:01:08.089Z,21.48
2022-09-28T23:03:35.289Z,17.30
2022-09-28T23:06:02.346Z,20.23
2022-09-28T23:08:29.299Z,31.70
2022-09-28T23:10:56.211Z,28.50
2022-09-28T23:13:22.977Z,29.83
2022-09-28T23:16:01.517Z,31.15
2022-09-28T23:18:30.702Z,30.20
2022-09-28T23:20:59.689Z,31.63
2022-09-28T23:23:26.819Z,39.80
2022-09-28T23:25:54.364Z,36.75
2022-09-28T23:28:22.485Z,35.55
2022-09-28T23:30:49.699Z,39.88
2022-09-28T23:33:17.682Z,37.92
2022-09-28T23:35:44.736Z,40.58
2022-09-28T23:38:13.652Z,40.38
2022-09-28T23:40:44.967Z,40.10
2022-09-28T23:43:12.509Z,38.65
2022-09-28T23:45:39.266Z,37.40
2022-09-28T23:48:06.761Z,37.30
2022-09-28T23:50:33.484Z,30.77
2022-09-28T23:53:00.275Z,31.98
2022-09-28T23:55:27.051Z,33.70
2022-09-28T23:57:55.612Z,33.40
